createdAt,value
2023-01-13T00:00:58.284Z,78.85
2023-01-13T00:01:59.470Z,79.27
2023-01-13T00:03:00.668Z,79.11
2023-01-13T00:04:04.928Z,79.14
2023-01-13T00:05:06.488Z,79.78
2023-01-13T00:06:09.221Z,79.45
2023-01-13T00:07:10.516Z,79.63
2023-01-13T00:08:11.729Z,79.92
2023-01-13T00:09:12.895Z,80.31
2023-01-13T00:10:14.184Z,79.99
2023-01-13T00:11:15.909Z,79.82
2023-01-13T00:12:17.235Z,80.24
2023-01-13T00:13:18.573Z,80.23
2023-01-13T00:14:22.114Z,79.69
2023-01-13T00:15:23.351Z,79.58
2023-01-13T00:16:24.690Z,79.89
2023-01-13T00:17:25.892Z,79.77
2023-01-13T00:18:27.421Z,79.98
2023-01-13T00:19:28.816Z,80.06
2023-01-13T00:20:30.119Z,80.27
2023-01-13T00:21:31.481Z,80.01
2023-01-13T00:22:33.871Z,79.99
2023-01-13T00:23:36.019Z,80.61
2023-01-13T00:24:37.191Z,80.74
2023-01-13T00:25:38.378Z,80.51
2023-01-13T00:26:39.670Z,80.64
2023-01-13T00:27:41.309Z,80.51
2023-01-13T00:28:42.608Z,80.50
2023-01-13T00:29:43.985Z,80.99
2023-01-13T00:30:46.563Z,80.76
2023-01-13T00:31:49.280Z,80.54
2023-01-13T00:32:50.510Z,80.98
2023-01-13T00:33:52.035Z,81.11
2023-01-13T00:34:53.492Z,80.99
2023-01-13T00:35:58.336Z,81.00
2023-01-13T00:36:59.573Z,81.19
2023-01-13T00:38:00.784Z,81.49
2023-01-13T00:39:02.065Z,81.68
2023-01-13T00:40:03.738Z,81.24
2023-01-13T00:41:07.035Z,81.04
2023-01-13T00:42:08.584Z,81.01
2023-01-13T00:43:09.823Z,81.14
2023-01-13T00:44:11.080Z,81.14
2023-01-13T00:45:12.316Z,81.12
2023-01-13T00:46:14.915Z,81.39
2023-01-13T00:47:16.241Z,81.40
2023-01-13T00:48:18.353Z,81.13
2023-01-13T00:49:19.693Z,81.29
2023-01-13T00:50:21.062Z,80.86
2023-01-13T00:51:22.364Z,80.94
2023-01-13T00:52:23.898Z,81.26
2023-01-13T00:53:25.753Z,81.26
2023-01-13T00:54:27.960Z,81.46
2023-01-13T00:55:31.990Z,81.32
2023-01-13T00:56:40.241Z,80.95
2023-01-13T00:57:42.339Z,80.90
2023-01-13T00:58:44.623Z,81.11
2023-01-13T00:59:46.350Z,80.88
2023-01-13T01:00:48.441Z,81.00
2023-01-13T01:01:49.784Z,80.72
2023-01-13T01:02:51.068Z,80.82
2023-01-13T01:03:53.181Z,80.46
2023-01-13T01:04:54.362Z,80.80
2023-01-13T01:05:55.980Z,80.60
2023-01-13T01:06:57.205Z,80.52
2023-01-13T01:07:58.470Z,80.76
2023-01-13T01:08:59.675Z,80.55
2023-01-13T01:10:01.000Z,80.95
2023-01-13T01:11:06.464Z,80.96
2023-01-13T01:12:07.761Z,80.57
2023-01-13T01:13:09.004Z,81.07
2023-01-13T01:14:11.587Z,80.92
2023-01-13T01:15:12.782Z,81.12
2023-01-13T01:16:15.549Z,80.87
2023-01-13T01:17:16.760Z,80.63
2023-01-13T01:18:18.839Z,80.36
2023-01-13T01:19:20.229Z,80.49
2023-01-13T01:20:21.435Z,79.94
2023-01-13T01:21:24.124Z,79.61
2023-01-13T01:22:25.321Z,79.31
2023-01-13T01:23:28.331Z,79.84
2023-01-13T01:24:29.541Z,79.44
2023-01-13T01:25:32.102Z,79.37
2023-01-13T01:26:33.417Z,78.86
2023-01-13T01:27:34.653Z,78.68
2023-01-13T01:28:36.065Z,78.45
2023-01-13T01:29:37.246Z,78.40
2023-01-13T01:30:38.869Z,78.41
2023-01-13T01:31:40.106Z,78.84
2023-01-13T01:32:41.582Z,79.02
2023-01-13T01:33:43.159Z,79.01
2023-01-13T01:34:44.696Z,78.73
2023-01-13T01:35:46.056Z,78.65
2023-01-13T01:36:47.351Z,78.95
2023-01-13T01:37:48.593Z,78.58
2023-01-13T01:38:50.055Z,78.42
2023-01-13T01:39:51.316Z,78.91
2023-01-13T01:40:52.549Z,79.28
2023-01-13T01:41:53.772Z,79.24
2023-01-13T01:42:55.164Z,79.18
2023-01-13T01:43:57.797Z,79.02
2023-01-13T01:45:00.267Z,79.66
2023-01-13T01:46:04.772Z,80.08
2023-01-13T01:47:06.021Z,79.85
2023-01-13T01:48:07.485Z,80.51
2023-01-13T01:49:12.834Z,80.93
2023-01-13T01:50:14.569Z,80.76
2023-01-13T01:51:15.868Z,80.53
2023-01-13T01:52:29.919Z,80.79
2023-01-13T01:53:32.629Z,80.25
2023-01-13T01:54:39.883Z,80.24
2023-01-13T01:55:43.837Z,80.78
2023-01-13T01:56:46.259Z,80.42
2023-01-13T01:57:50.511Z,80.75
2023-01-13T02:00:11.551Z,80.84
2023-01-13T02:01:16.055Z,80.87
2023-01-13T02:02:17.808Z,79.98
2023-01-13T02:03:19.476Z,80.10
2023-01-13T02:04:23.296Z,80.74
2023-01-13T02:05:24.498Z,80.45
2023-01-13T02:06:26.858Z,80.44
2023-01-13T02:07:30.425Z,80.77
2023-01-13T02:08:32.377Z,80.63
2023-01-13T02:09:34.867Z,80.43
2023-01-13T02:10:36.175Z,80.46
2023-01-13T02:11:37.589Z,80.17
2023-01-13T02:12:39.911Z,79.74
2023-01-13T02:13:41.200Z,79.31
2023-01-13T02:14:45.415Z,79.66
2023-01-13T02:15:55.575Z,79.91
2023-01-13T02:17:00.091Z,79.70
2023-01-13T02:18:04.036Z,80.45
2023-01-13T02:19:23.572Z,80.27
2023-01-13T02:20:43.293Z,80.71
2023-01-13T02:21:57.820Z,81.17
2023-01-13T02:23:17.885Z,80.85
2023-01-13T02:24:34.375Z,80.54
2023-01-13T02:25:38.860Z,80.42
2023-01-13T02:27:09.189Z,80.08
2023-01-13T02:28:16.248Z,79.96
2023-01-13T02:29:36.169Z,80.60
2023-01-13T02:30:40.046Z,80.74
2023-01-13T02:31:43.221Z,80.35
2023-01-13T02:33:03.340Z,80.09
2023-01-13T02:34:04.893Z,80.34
2023-01-13T02:35:08.343Z,80.49
2023-01-13T02:36:17.648Z,80.33
2023-01-13T02:37:23.259Z,80.66
2023-01-13T02:38:36.951Z,80.31
2023-01-13T02:39:52.082Z,80.64
2023-01-13T02:40:58.492Z,80.23
2023-01-13T02:42:06.007Z,80.18
2023-01-13T02:43:13.295Z,80.12
2023-01-13T02:44:18.344Z,80.18
2023-01-13T02:45:23.785Z,80.14
2023-01-13T02:46:31.433Z,80.36
2023-01-13T02:47:36.411Z,80.10
2023-01-13T02:48:38.229Z,80.50
2023-01-13T02:49:43.294Z,80.26
2023-01-13T02:50:47.411Z,80.14
2023-01-13T02:51:49.113Z,80.00
2023-01-13T02:52:58.669Z,79.88
2023-01-13T02:54:02.017Z,80.33
2023-01-13T02:55:09.409Z,80.26
2023-01-13T02:56:11.937Z,80.25
2023-01-13T02:57:14.621Z,80.69
2023-01-13T02:58:18.582Z,80.39
2023-01-13T02:59:20.202Z,80.51
2023-01-13T03:00:23.081Z,80.36
2023-01-13T03:01:24.682Z,80.67
2023-01-13T03:02:25.978Z,81.19
2023-01-13T03:03:27.271Z,81.12
2023-01-13T03:04:47.320Z,80.67
2023-01-13T03:05:51.017Z,80.68
2023-01-13T03:07:01.933Z,80.80
2023-01-13T03:08:12.370Z,80.89
2023-01-13T03:09:21.131Z,81.33
2023-01-13T03:10:41.245Z,81.60
2023-01-13T03:12:02.737Z,81.45
2023-01-13T03:13:13.322Z,81.62
2023-01-13T03:14:26.645Z,81.47
2023-01-13T03:15:27.886Z,81.66
2023-01-13T03:16:40.994Z,81.93
2023-01-13T03:17:44.035Z,81.79
2023-01-13T03:18:55.835Z,81.92
2023-01-13T03:20:03.350Z,81.44
2023-01-13T03:21:10.034Z,82.40
2023-01-13T03:22:11.527Z,82.53
2023-01-13T03:23:18.825Z,82.51
2023-01-13T03:24:23.565Z,82.58
2023-01-13T03:25:29.455Z,82.74
2023-01-13T03:26:30.695Z,82.39
2023-01-13T03:27:50.871Z,82.09
2023-01-13T03:28:54.411Z,82.66
2023-01-13T03:30:19.077Z,82.40
2023-01-13T03:31:24.600Z,82.51
2023-01-13T03:32:35.104Z,82.41
2023-01-13T03:33:41.364Z,82.05
2023-01-13T03:34:48.458Z,81.94
2023-01-13T03:35:52.061Z,82.41
2023-01-13T03:36:55.270Z,82.57
2023-01-13T03:38:00.383Z,82.66
2023-01-13T03:39:07.695Z,82.57
2023-01-13T03:40:13.092Z,82.67
2023-01-13T03:41:18.883Z,82.44
2023-01-13T03:42:22.905Z,82.31
2023-01-13T03:43:27.782Z,81.77
2023-01-13T03:44:32.668Z,81.49
2023-01-13T03:45:35.602Z,81.80
2023-01-13T03:46:42.281Z,82.24
2023-01-13T03:47:45.913Z,81.85
2023-01-13T03:48:51.073Z,81.36
2023-01-13T03:49:59.659Z,81.48
2023-01-13T03:51:13.754Z,81.83
2023-01-13T03:52:23.973Z,81.67
2023-01-13T03:53:34.445Z,81.88
2023-01-13T03:54:39.639Z,82.65
2023-01-13T03:55:44.448Z,82.07
2023-01-13T03:56:47.803Z,82.07
2023-01-13T03:57:54.949Z,81.85
2023-01-13T03:58:57.520Z,81.19
2023-01-13T04:00:00.127Z,81.31
2023-01-13T04:01:10.741Z,81.40
2023-01-13T04:02:14.247Z,81.43
2023-01-13T04:03:20.442Z,81.57
2023-01-13T04:04:24.676Z,81.26
2023-01-13T04:05:27.159Z,82.19
2023-01-13T04:06:47.180Z,81.80
2023-01-13T04:08:14.600Z,82.43
2023-01-13T04:09:31.019Z,82.48
2023-01-13T04:10:38.155Z,82.46
2023-01-13T04:11:41.855Z,82.37
2023-01-13T04:12:52.744Z,82.22
2023-01-13T04:13:55.107Z,82.48
2023-01-13T04:14:56.456Z,82.53
2023-01-13T04:15:59.370Z,82.83
2023-01-13T04:17:00.681Z,83.14
2023-01-13T04:18:03.261Z,83.28
2023-01-13T04:19:04.811Z,82.88
2023-01-13T04:20:06.337Z,83.03
2023-01-13T04:21:07.774Z,82.72
2023-01-13T04:22:09.241Z,82.88
2023-01-13T04:23:10.871Z,82.52
2023-01-13T04:24:12.176Z,82.31
2023-01-13T04:25:13.740Z,82.57
2023-01-13T04:26:14.972Z,82.54
2023-01-13T04:27:19.089Z,82.32
2023-01-13T04:28:21.025Z,82.23
2023-01-13T04:29:22.507Z,82.50
2023-01-13T04:30:23.850Z,82.51
2023-01-13T04:31:25.290Z,81.84
2023-01-13T04:32:26.623Z,81.82
2023-01-13T04:33:28.029Z,81.64
2023-01-13T04:34:29.249Z,81.88
2023-01-13T04:35:31.142Z,81.91
2023-01-13T04:36:32.427Z,82.37
2023-01-13T04:37:33.659Z,81.87
2023-01-13T04:38:34.939Z,81.63
2023-01-13T04:39:36.195Z,81.66
2023-01-13T04:40:37.550Z,81.66
2023-01-13T04:41:38.903Z,80.84
2023-01-13T04:42:40.172Z,80.74
2023-01-13T04:43:41.411Z,80.63
2023-01-13T04:44:42.723Z,80.17
2023-01-13T04:45:44.570Z,80.00
2023-01-13T04:46:46.107Z,79.95
2023-01-13T04:47:47.621Z,80.45
2023-01-13T04:48:48.992Z,80.63
2023-01-13T04:49:50.393Z,80.39
2023-01-13T04:50:51.672Z,79.96
2023-01-13T04:51:53.008Z,80.11
2023-01-13T04:52:54.844Z,80.62
2023-01-13T04:53:56.068Z,80.73
2023-01-13T04:54:57.258Z,80.30
2023-01-13T04:55:58.549Z,80.53
2023-01-13T04:56:59.836Z,80.21
2023-01-13T04:58:10.730Z,80.75
2023-01-13T04:59:12.488Z,80.77
2023-01-13T05:00:14.923Z,80.03
2023-01-13T05:01:16.264Z,79.93
2023-01-13T05:02:17.617Z,80.03
2023-01-13T05:03:18.918Z,80.01
2023-01-13T05:04:20.331Z,80.31
2023-01-13T05:05:21.647Z,80.63
2023-01-13T05:06:22.875Z,80.88
2023-01-13T05:07:24.086Z,80.99
2023-01-13T05:08:25.351Z,80.82
2023-01-13T05:09:26.691Z,80.89
2023-01-13T05:10:28.017Z,80.49
2023-01-13T05:11:29.292Z,80.83
2023-01-13T05:12:30.573Z,80.92
2023-01-13T05:13:31.940Z,81.17
2023-01-13T05:14:33.248Z,80.91
2023-01-13T05:15:34.652Z,81.22
2023-01-13T05:16:35.895Z,80.42
2023-01-13T05:17:37.385Z,80.27
2023-01-13T05:18:38.611Z,80.33
2023-01-13T05:19:39.863Z,80.14
2023-01-13T05:20:41.131Z,80.16
2023-01-13T05:21:42.381Z,80.05
2023-01-13T05:22:43.762Z,80.29
2023-01-13T05:23:45.110Z,80.18
2023-01-13T05:24:46.584Z,80.29
2023-01-13T05:25:48.140Z,79.82
2023-01-13T05:26:49.428Z,79.79
2023-01-13T05:27:54.142Z,79.93
2023-01-13T05:28:55.357Z,80.17
2023-01-13T05:29:56.661Z,79.93
2023-01-13T05:30:57.925Z,80.06
2023-01-13T05:31:59.192Z,79.71
2023-01-13T05:33:00.520Z,79.83
2023-01-13T05:34:01.833Z,79.53
2023-01-13T05:35:03.247Z,79.76
2023-01-13T05:36:04.573Z,79.85
2023-01-13T05:37:05.773Z,80.14
2023-01-13T05:38:07.540Z,80.80
2023-01-13T05:39:08.805Z,80.20
2023-01-13T05:40:11.095Z,80.31
2023-01-13T05:41:12.348Z,80.09
2023-01-13T05:42:13.641Z,79.75
2023-01-13T05:43:19.041Z,79.89
2023-01-13T05:44:20.253Z,80.13
2023-01-13T05:45:21.586Z,80.08
2023-01-13T05:46:22.956Z,80.17
2023-01-13T05:47:24.196Z,80.26
2023-01-13T05:48:27.210Z,80.30
2023-01-13T05:49:28.418Z,79.92
2023-01-13T05:50:29.680Z,79.64
2023-01-13T05:51:39.312Z,79.85
2023-01-13T05:52:40.561Z,79.84
2023-01-13T05:53:41.895Z,79.84
2023-01-13T05:54:43.164Z,80.01
2023-01-13T05:55:44.782Z,80.45
2023-01-13T05:56:46.049Z,80.34
2023-01-13T05:57:47.315Z,80.16
2023-01-13T05:58:48.506Z,79.96
2023-01-13T05:59:49.765Z,80.35
2023-01-13T06:00:51.333Z,80.59
2023-01-13T06:01:52.629Z,80.45
2023-01-13T06:02:53.878Z,80.86
2023-01-13T06:03:55.150Z,81.23
2023-01-13T06:04:56.380Z,80.71
2023-01-13T06:05:57.777Z,80.70
2023-01-13T06:06:59.302Z,81.21
2023-01-13T06:08:01.810Z,80.85
2023-01-13T06:09:03.076Z,80.93
2023-01-13T06:10:04.742Z,80.56
2023-01-13T06:11:06.018Z,80.69
2023-01-13T06:12:07.291Z,80.75
2023-01-13T06:13:08.697Z,81.12
2023-01-13T06:14:09.900Z,80.92
2023-01-13T06:15:11.281Z,81.15
2023-01-13T06:16:12.614Z,80.94
2023-01-13T06:17:14.897Z,80.81
2023-01-13T06:18:16.196Z,81.30
2023-01-13T06:19:17.485Z,80.99
2023-01-13T06:20:18.762Z,81.17
2023-01-13T06:21:19.984Z,81.50
2023-01-13T06:22:26.378Z,81.40
2023-01-13T06:23:28.108Z,80.70
2023-01-13T06:24:29.468Z,80.37
2023-01-13T06:25:30.765Z,80.67
2023-01-13T06:26:35.763Z,80.99
2023-01-13T06:27:37.203Z,80.83
2023-01-13T06:28:38.422Z,80.77
2023-01-13T06:29:39.815Z,80.50
2023-01-13T06:30:55.301Z,81.02
2023-01-13T06:31:57.035Z,80.35
2023-01-13T06:32:59.600Z,80.39
2023-01-13T06:34:04.197Z,80.21
2023-01-13T06:35:10.658Z,80.85
2023-01-13T06:36:13.545Z,81.22
2023-01-13T06:37:19.087Z,81.21
2023-01-13T06:38:22.128Z,81.38
2023-01-13T06:39:24.956Z,81.34
2023-01-13T06:40:26.254Z,80.97
2023-01-13T06:41:28.624Z,80.92
2023-01-13T06:42:32.351Z,81.43
2023-01-13T06:43:33.706Z,81.11
2023-01-13T06:44:34.995Z,81.47
2023-01-13T06:45:36.326Z,81.21
2023-01-13T06:46:37.783Z,81.42
2023-01-13T06:47:39.118Z,81.90
2023-01-13T06:48:40.353Z,82.04
2023-01-13T06:49:41.563Z,81.91
2023-01-13T06:50:42.884Z,82.10
2023-01-13T06:51:44.232Z,81.95
2023-01-13T06:52:45.502Z,81.95
2023-01-13T06:53:46.799Z,81.66
2023-01-13T06:54:48.045Z,81.53
2023-01-13T06:55:49.316Z,82.11
2023-01-13T06:56:50.677Z,82.55
2023-01-13T06:57:55.820Z,82.28
2023-01-13T06:58:57.161Z,82.83
2023-01-13T06:59:58.465Z,82.50
2023-01-13T07:01:00.330Z,82.42
2023-01-13T07:02:02.634Z,82.56
2023-01-13T07:03:09.973Z,82.61
2023-01-13T07:04:11.243Z,82.67
2023-01-13T07:05:12.905Z,82.59
2023-01-13T07:06:14.357Z,82.51
2023-01-13T07:07:15.662Z,82.90
2023-01-13T07:08:16.898Z,82.56
2023-01-13T07:09:18.230Z,82.71
2023-01-13T07:10:22.006Z,82.83
2023-01-13T07:11:23.254Z,83.07
2023-01-13T07:12:24.595Z,83.52
2023-01-13T07:13:25.913Z,82.61
2023-01-13T07:14:27.126Z,82.83
2023-01-13T07:15:28.372Z,83.30
2023-01-13T07:16:29.569Z,83.14
2023-01-13T07:17:30.880Z,83.52
2023-01-13T07:18:32.855Z,83.44
2023-01-13T07:19:34.206Z,82.78
2023-01-13T07:20:35.454Z,83.21
2023-01-13T07:21:36.717Z,83.04
2023-01-13T07:22:37.958Z,83.20
2023-01-13T07:23:40.213Z,83.50
2023-01-13T07:24:41.523Z,83.39
2023-01-13T07:25:42.779Z,83.17
2023-01-13T07:26:44.022Z,83.42
2023-01-13T07:27:45.253Z,83.43
2023-01-13T07:28:46.518Z,83.64
2023-01-13T07:29:47.735Z,83.36
2023-01-13T07:30:49.031Z,83.67
2023-01-13T07:31:50.569Z,84.00
2023-01-13T07:32:51.867Z,83.94
2023-01-13T07:33:53.120Z,83.92
2023-01-13T07:34:54.319Z,83.86
2023-01-13T07:36:02.864Z,83.39
2023-01-13T07:37:04.191Z,83.31
2023-01-13T07:38:05.453Z,83.22
2023-01-13T07:39:06.686Z,83.40
2023-01-13T07:40:08.662Z,83.65
2023-01-13T07:41:12.495Z,82.80
2023-01-13T07:42:13.722Z,83.32
2023-01-13T07:43:15.051Z,82.94
2023-01-13T07:44:16.405Z,83.06
2023-01-13T07:45:17.861Z,82.65
2023-01-13T07:46:19.235Z,83.11
2023-01-13T07:47:20.461Z,82.88
2023-01-13T07:48:21.680Z,83.15
2023-01-13T07:49:22.960Z,83.63
2023-01-13T07:50:24.212Z,83.28
2023-01-13T07:51:25.423Z,83.11
2023-01-13T07:52:26.671Z,83.20
2023-01-13T07:53:27.931Z,82.99
2023-01-13T07:54:40.309Z,82.88
2023-01-13T07:55:43.153Z,82.52
2023-01-13T07:56:44.435Z,82.51
2023-01-13T07:57:47.694Z,83.19
2023-01-13T07:58:48.920Z,82.61
2023-01-13T07:59:50.174Z,82.33
2023-01-13T08:00:51.859Z,82.62
2023-01-13T08:01:53.344Z,82.88
2023-01-13T08:02:54.677Z,82.60
2023-01-13T08:03:55.975Z,82.95
2023-01-13T08:04:57.272Z,83.26
2023-01-13T08:06:00.189Z,83.56
2023-01-13T08:07:01.448Z,83.31
2023-01-13T08:08:02.828Z,83.70
2023-01-13T08:09:04.052Z,84.01
2023-01-13T08:10:05.546Z,84.26
2023-01-13T08:11:07.578Z,84.74
2023-01-13T08:12:08.807Z,85.13
2023-01-13T08:13:15.515Z,86.44
2023-01-13T08:14:16.972Z,87.51
2023-01-13T08:15:18.225Z,87.31
2023-01-13T08:16:22.760Z,88.09
2023-01-13T08:17:24.005Z,88.01
2023-01-13T08:18:25.234Z,87.92
2023-01-13T08:19:26.593Z,88.21
2023-01-13T08:20:27.896Z,89.50
2023-01-13T08:21:29.146Z,89.21
2023-01-13T08:22:34.911Z,89.64
2023-01-13T08:23:40.164Z,90.76
2023-01-13T08:24:43.966Z,92.77
2023-01-13T08:25:45.544Z,93.85
2023-01-13T08:26:46.871Z,94.65
2023-01-13T08:27:49.177Z,95.32
2023-01-13T08:28:50.460Z,96.70
2023-01-13T08:29:51.893Z,97.25
2023-01-13T08:30:53.223Z,98.02
2023-01-13T08:31:54.606Z,98.92
2023-01-13T08:32:55.956Z,99.88
2023-01-13T08:34:00.380Z,100.00
2023-01-13T08:35:01.718Z,100.00
2023-01-13T08:36:04.196Z,100.00
2023-01-13T08:37:05.448Z,100.00
2023-01-13T08:38:07.051Z,100.00
2023-01-13T08:39:08.408Z,100.00
2023-01-13T08:40:09.989Z,100.00
2023-01-13T08:41:15.273Z,100.00
2023-01-13T08:42:16.605Z,100.00
2023-01-13T08:43:17.830Z,100.00
2023-01-13T08:44:19.071Z,100.00
2023-01-13T08:45:20.374Z,100.00
2023-01-13T08:46:21.732Z,100.00
2023-01-13T08:47:23.391Z,100.00
2023-01-13T08:48:24.900Z,100.00
2023-01-13T08:49:26.482Z,100.00
2023-01-13T08:50:29.534Z,100.00
2023-01-13T08:51:30.817Z,100.00
2023-01-13T08:52:32.098Z,100.00
2023-01-13T08:53:33.375Z,100.00
2023-01-13T08:54:34.606Z,100.00
2023-01-13T08:55:35.816Z,100.00
2023-01-13T08:56:37.123Z,100.00
2023-01-13T08:57:38.442Z,100.00
2023-01-13T08:58:39.763Z,100.00
2023-01-13T08:59:41.436Z,100.00
2023-01-13T09:00:43.227Z,100.00
2023-01-13T09:01:44.624Z,100.00
2023-01-13T09:02:45.897Z,100.00
2023-01-13T09:03:47.189Z,100.00
2023-01-13T09:04:48.919Z,100.00
2023-01-13T09:05:50.197Z,100.00
2023-01-13T09:06:51.604Z,100.00
2023-01-13T09:07:52.876Z,100.00
2023-01-13T09:08:54.073Z,100.00
2023-01-13T09:09:55.360Z,100.00
2023-01-13T09:10:57.277Z,100.00
2023-01-13T09:11:58.546Z,100.00
2023-01-13T09:13:00.059Z,100.00
2023-01-13T09:14:03.286Z,100.00
2023-01-13T09:15:05.103Z,100.00
2023-01-13T09:16:06.553Z,100.00
2023-01-13T09:17:07.867Z,100.00
2023-01-13T09:18:09.372Z,100.00
2023-01-13T09:19:10.747Z,100.00
2023-01-13T09:20:12.544Z,100.00
2023-01-13T09:21:14.042Z,100.00
2023-01-13T09:22:16.882Z,100.00
2023-01-13T09:23:18.119Z,100.00
2023-01-13T09:24:19.766Z,100.00
2023-01-13T09:25:21.062Z,100.00
2023-01-13T09:26:22.352Z,100.00
2023-01-13T09:27:23.597Z,100.00
2023-01-13T09:28:24.933Z,100.00
2023-01-13T09:29:26.278Z,100.00
2023-01-13T09:30:27.531Z,100.00
2023-01-13T09:31:28.942Z,100.00
2023-01-13T09:32:30.249Z,100.00
2023-01-13T09:33:31.519Z,100.00
2023-01-13T09:34:32.969Z,100.00
2023-01-13T09:35:35.863Z,100.00
2023-01-13T09:36:37.066Z,100.00
2023-01-13T09:37:39.815Z,100.00
2023-01-13T09:38:41.029Z,100.00
2023-01-13T09:39:42.361Z,100.00
2023-01-13T09:40:43.720Z,100.00
2023-01-13T09:41:47.477Z,100.00
2023-01-13T09:42:54.574Z,100.00
2023-01-13T09:43:59.141Z,100.00
2023-01-13T09:45:19.133Z,100.00
2023-01-13T09:46:27.437Z,100.00
2023-01-13T09:47:31.844Z,100.00
2023-01-13T09:48:37.394Z,100.00
2023-01-13T09:49:40.158Z,100.00
2023-01-13T09:50:47.487Z,100.00
2023-01-13T09:51:58.034Z,100.00
2023-01-13T09:52:59.845Z,100.00
2023-01-13T09:54:13.367Z,100.00
2023-01-13T09:55:16.057Z,100.00
2023-01-13T09:56:17.313Z,100.00
2023-01-13T09:57:20.141Z,100.00
2023-01-13T09:58:21.614Z,100.00
2023-01-13T09:59:32.246Z,100.00
2023-01-13T10:00:36.640Z,100.00
2023-01-13T10:01:46.796Z,100.00
2023-01-13T10:03:07.775Z,100.00
2023-01-13T10:04:12.917Z,100.00
2023-01-13T10:05:19.624Z,100.00
2023-01-13T10:06:23.927Z,100.00
2023-01-13T10:07:29.164Z,100.00
2023-01-13T10:08:30.341Z,100.00
2023-01-13T10:09:47.901Z,100.00
2023-01-13T10:10:51.065Z,100.00
2023-01-13T10:11:54.096Z,100.00
2023-01-13T10:12:55.312Z,100.00
2023-01-13T10:13:58.737Z,98.50
2023-01-13T10:15:00.027Z,98.13
2023-01-13T10:16:07.558Z,98.82
2023-01-13T10:17:25.809Z,97.81
2023-01-13T10:18:29.942Z,98.08
2023-01-13T10:19:34.522Z,98.48
2023-01-13T10:20:49.117Z,97.47
2023-01-13T10:21:50.325Z,97.13
2023-01-13T10:23:09.948Z,94.95
2023-01-13T10:24:11.188Z,94.88
2023-01-13T10:25:15.510Z,95.58
2023-01-13T10:26:31.749Z,95.65
2023-01-13T10:27:34.174Z,95.66
2023-01-13T10:28:35.450Z,96.80
2023-01-13T10:29:36.968Z,97.68
2023-01-13T10:30:43.081Z,97.09
2023-01-13T10:31:44.305Z,96.34
2023-01-13T10:33:14.639Z,96.54
2023-01-13T10:34:16.030Z,96.63
2023-01-13T10:35:17.310Z,94.51
2023-01-13T10:36:18.974Z,95.09
2023-01-13T10:37:21.665Z,94.97
2023-01-13T10:38:30.711Z,96.93
2023-01-13T10:39:39.194Z,95.62
2023-01-13T10:40:47.924Z,95.67
2023-01-13T10:41:49.274Z,97.14
2023-01-13T10:43:03.358Z,96.44
2023-01-13T10:44:07.787Z,97.59
2023-01-13T10:45:16.573Z,96.46
2023-01-13T10:46:18.684Z,97.84
2023-01-13T10:47:22.001Z,97.47
2023-01-13T10:48:23.299Z,97.16
2023-01-13T10:49:27.326Z,94.89
2023-01-13T10:50:28.951Z,95.90
2023-01-13T10:51:30.190Z,95.61
2023-01-13T10:52:33.235Z,95.50
2023-01-13T10:53:44.184Z,97.01
2023-01-13T10:54:51.464Z,96.54
2023-01-13T10:56:00.125Z,97.30
2023-01-13T10:57:15.370Z,97.98
2023-01-13T10:58:20.761Z,96.03
2023-01-13T10:59:25.922Z,95.50
2023-01-13T11:00:28.667Z,95.54
2023-01-13T11:01:29.995Z,95.74
2023-01-13T11:02:32.986Z,94.93
2023-01-13T11:03:36.568Z,95.20
2023-01-13T11:04:39.097Z,95.43
2023-01-13T11:05:40.566Z,95.52
2023-01-13T11:06:45.424Z,95.92
2023-01-13T11:07:50.331Z,94.51
2023-01-13T11:08:52.533Z,95.66
2023-01-13T11:10:02.946Z,94.42
2023-01-13T11:11:24.171Z,93.71
2023-01-13T11:12:29.992Z,93.07
2023-01-13T11:13:33.984Z,93.77
2023-01-13T11:14:43.769Z,93.49
2023-01-13T11:15:53.827Z,92.76
2023-01-13T11:16:57.637Z,93.84
2023-01-13T11:18:02.196Z,93.97
2023-01-13T11:19:06.571Z,94.62
2023-01-13T11:20:10.879Z,94.29
2023-01-13T11:21:20.375Z,94.00
2023-01-13T11:22:24.724Z,93.07
2023-01-13T11:23:35.251Z,93.07
2023-01-13T11:24:40.189Z,94.20
2023-01-13T11:25:42.996Z,93.17
2023-01-13T11:26:47.223Z,93.26
2023-01-13T11:28:16.668Z,93.32
2023-01-13T11:29:24.228Z,94.03
2023-01-13T11:30:34.210Z,94.12
2023-01-13T11:31:42.361Z,93.86
2023-01-13T11:32:49.709Z,93.27
2023-01-13T11:33:59.809Z,94.79
2023-01-13T11:35:03.887Z,95.37
2023-01-13T11:36:11.748Z,95.67
2023-01-13T11:37:25.301Z,95.93
2023-01-13T11:38:49.869Z,94.51
2023-01-13T11:39:57.561Z,93.48
2023-01-13T11:41:07.815Z,94.21
2023-01-13T11:42:27.799Z,94.11
2023-01-13T11:43:32.436Z,94.89
2023-01-13T11:44:43.753Z,94.99
2023-01-13T11:45:48.223Z,95.98
2023-01-13T11:46:51.037Z,94.76
2023-01-13T11:47:54.169Z,94.34
2023-01-13T11:48:56.401Z,93.40
2023-01-13T11:49:58.300Z,92.96
2023-01-13T11:51:02.555Z,93.85
2023-01-13T11:52:26.789Z,92.43
2023-01-13T11:53:49.610Z,92.43
2023-01-13T11:55:05.295Z,92.53
2023-01-13T11:56:15.654Z,91.10
2023-01-13T11:57:35.675Z,91.31
2023-01-13T11:58:54.178Z,91.99
2023-01-13T12:00:03.735Z,92.75
2023-01-13T12:01:13.661Z,91.25
2023-01-13T12:02:14.976Z,91.54
2023-01-13T12:03:31.624Z,91.58
2023-01-13T12:04:43.513Z,90.58
2023-01-13T12:05:59.630Z,90.66
2023-01-13T12:07:17.309Z,88.44
2023-01-13T12:08:22.549Z,88.96
2023-01-13T12:09:32.846Z,88.91
2023-01-13T12:10:53.751Z,89.77
2023-01-13T12:12:01.338Z,88.66
2023-01-13T12:13:02.531Z,89.76
2023-01-13T12:14:24.056Z,88.33
2023-01-13T12:15:48.142Z,89.15
2023-01-13T12:16:49.491Z,87.36
2023-01-13T12:18:02.806Z,86.16
2023-01-13T12:19:04.066Z,86.56
2023-01-13T12:20:18.618Z,86.89
2023-01-13T12:21:27.941Z,86.83
2023-01-13T12:22:30.838Z,87.54
2023-01-13T12:23:38.751Z,87.77
2023-01-13T12:24:54.151Z,87.15
2023-01-13T12:25:59.497Z,87.58
2023-01-13T12:27:03.525Z,86.21
2023-01-13T12:28:10.387Z,85.69
2023-01-13T12:29:15.905Z,87.25
2023-01-13T12:30:22.025Z,85.80
2023-01-13T12:31:23.681Z,86.13
2023-01-13T12:32:33.865Z,85.17
2023-01-13T12:33:53.544Z,83.38
2023-01-13T12:35:05.454Z,84.01
2023-01-13T12:36:18.513Z,84.67
2023-01-13T12:37:19.771Z,80.03
2023-01-13T12:38:23.864Z,79.23
2023-01-13T12:39:39.841Z,80.93
2023-01-13T12:41:17.689Z,78.25
2023-01-13T12:42:36.943Z,78.94
2023-01-13T12:43:41.159Z,77.76
2023-01-13T12:45:01.322Z,76.97
2023-01-13T12:46:33.238Z,76.22
2023-01-13T12:47:38.597Z,74.43
2023-01-13T12:48:52.174Z,75.62
2023-01-13T12:50:13.397Z,77.00
2023-01-13T12:51:21.596Z,76.05
2023-01-13T12:52:22.895Z,76.50
2023-01-13T12:53:31.558Z,79.05
2023-01-13T12:54:42.027Z,78.16
2023-01-13T12:55:43.412Z,76.63
2023-01-13T12:56:44.934Z,76.55
2023-01-13T12:57:56.619Z,77.52
2023-01-13T12:59:16.638Z,77.33
2023-01-13T13:00:18.368Z,77.62
2023-01-13T13:01:33.773Z,79.47
2023-01-13T13:02:39.476Z,81.11
2023-01-13T13:03:41.208Z,80.93
2023-01-13T13:04:50.042Z,82.28
2023-01-13T13:05:55.547Z,83.94
2023-01-13T13:07:12.195Z,81.86
2023-01-13T13:08:32.143Z,83.09
2023-01-13T13:09:38.004Z,84.24
2023-01-13T13:10:42.653Z,85.29
2023-01-13T13:11:45.561Z,83.44
2023-01-13T13:12:46.879Z,81.13
2023-01-13T13:13:48.726Z,82.72
2023-01-13T13:14:49.942Z,82.03
2023-01-13T13:15:51.715Z,79.70
2023-01-13T13:16:53.055Z,79.04
2023-01-13T13:18:01.803Z,79.58
2023-01-13T13:19:18.471Z,77.73
2023-01-13T13:20:38.490Z,77.13
2023-01-13T13:21:58.655Z,79.24
2023-01-13T13:22:59.927Z,76.91
2023-01-13T13:24:03.098Z,76.37
2023-01-13T13:25:04.357Z,76.54
2023-01-13T13:26:26.146Z,75.01
2023-01-13T13:27:29.797Z,75.25
2023-01-13T13:28:36.782Z,73.63
2023-01-13T13:29:52.981Z,74.01
2023-01-13T13:31:04.810Z,73.92
2023-01-13T13:32:18.949Z,75.92
2023-01-13T13:33:55.477Z,73.32
2023-01-13T13:35:07.488Z,73.18
2023-01-13T13:36:20.435Z,74.59
2023-01-13T13:37:30.855Z,75.73
2023-01-13T13:38:46.458Z,74.55
2023-01-13T13:39:47.834Z,75.07
2023-01-13T13:40:49.189Z,75.41
2023-01-13T13:41:52.773Z,73.06
2023-01-13T13:42:57.104Z,72.37
2023-01-13T13:44:05.196Z,71.56
2023-01-13T13:45:17.405Z,72.79
2023-01-13T13:46:26.943Z,72.08
2023-01-13T13:47:38.350Z,72.11
2023-01-13T13:48:39.683Z,71.94
2023-01-13T13:49:43.994Z,72.17
2023-01-13T13:50:48.603Z,72.21